Time;durP1;ratioP1;P1;durP2;ratioP2;P2;SDS_P1;SDS_P2;PMS_P1;PMS_P2;Temp;Humidity;BMP_temperature;BMP_pressure;BME280_temperature;BME280_humidity;BME280_pressure;Samples;Min_cycle;Max_cycle;Signal;HPM_P1;HPM_P2
2022/01/29 00:00:29;;;;;;;60.43;17.37;;;6.90;99.90;;;;;;5064054;28;20239;-88
2022/01/29 00:02:56;;;;;;;57.67;16.13;;;7.00;99.90;;;;;;5067208;28;20229;-88
2022/01/29 00:05:23;;;;;;;66.43;17.67;;;7.00;99.90;;;;;;5061974;28;20552;-88
2022/01/29 00:07:50;;;;;;;69.10;18.40;;;7.00;99.90;;;;;;5041885;28;20673;-88
2022/01/29 00:10:19;;;;;;;62.07;18.00;;;7.00;99.90;;;;;;5062826;28;20891;-88
2022/01/29 00:12:46;;;;;;;74.20;18.83;;;7.00;99.90;;;;;;5064408;28;20289;-88
2022/01/29 00:15:12;;;;;;;73.87;20.43;;;7.00;99.90;;;;;;5058915;28;20213;-88
2022/01/29 00:17:40;;;;;;;70.87;20.10;;;7.00;99.90;;;;;;5066972;28;20214;-88
2022/01/29 00:20:08;;;;;;;74.07;20.97;;;7.00;99.90;;;;;;5042242;28;20228;-88
2022/01/29 00:22:35;;;;;;;72.97;20.60;;;7.00;99.90;;;;;;5057905;28;20218;-88
2022/01/29 00:25:02;;;;;;;82.57;21.67;;;7.00;99.90;;;;;;5043164;28;20667;-89
2022/01/29 00:27:34;;;;;;;66.13;18.97;;;;;;;;;;5066931;28;20212;-89
2022/01/29 00:30:03;;;;;;;74.10;21.63;;;7.00;99.90;;;;;;5044769;28;20362;-89
2022/01/29 00:32:30;;;;;;;64.80;17.07;;;7.60;99.90;;;;;;5055714;28;20645;-88
2022/01/29 00:34:57;;;;;;;72.73;20.87;;;;;;;;;;5059226;28;20612;-88
2022/01/29 00:37:24;;;;;;;79.27;19.40;;;;;;;;;;5042912;28;20629;-88
2022/01/29 00:39:51;;;;;;;69.30;19.30;;;7.00;99.90;;;;;;5064678;28;20225;-88
2022/01/29 00:42:18;;;;;;;79.37;22.27;;;7.10;99.90;;;;;;5043780;28;20212;-88
2022/01/29 00:44:47;;;;;;;80.33;20.47;;;7.10;99.90;;;;;;5057604;28;20841;-87
2022/01/29 00:47:14;;;;;;;65.10;20.10;;;7.10;99.90;;;;;;5067826;28;20210;-88
2022/01/29 00:49:41;;;;;;;78.00;21.43;;;7.10;99.90;;;;;;5050408;28;20225;-88
2022/01/29 00:52:08;;;;;;;74.00;22.10;;;7.10;99.90;;;;;;5042406;28;20204;-88
2022/01/29 00:54:35;;;;;;;67.20;20.10;;;7.10;99.90;;;;;;5045169;28;20213;-88
2022/01/29 00:57:03;;;;;;;77.07;21.37;;;7.10;99.90;;;;;;5050375;28;20213;-88
2022/01/29 00:59:31;;;;;;;57.33;17.20;;;7.20;99.90;;;;;;5048344;28;20244;-88
2022/01/29 01:01:59;;;;;;;67.70;19.43;;;7.20;99.90;;;;;;5064382;28;20204;-88
2022/01/29 01:04:26;;;;;;;73.50;21.73;;;7.20;99.90;;;;;;5050671;28;20204;-88
2022/01/29 01:06:53;;;;;;;67.57;20.40;;;7.20;99.90;;;;;;5065547;28;20564;-88
2022/01/29 01:09:20;;;;;;;72.93;21.93;;;;;;;;;;5050857;28;20318;-88
2022/01/29 01:11:47;;;;;;;63.20;17.93;;;;;;;;;;5072250;28;20225;-88
2022/01/29 01:14:15;;;;;;;72.60;21.43;;;;;;;;;;5049875;28;20295;-88
2022/01/29 01:16:42;;;;;;;80.80;23.00;;;;;;;;;;5062192;28;20218;-88
2022/01/29 01:19:10;;;;;;;81.30;22.13;;;;;;;;;;5066181;28;20814;-88
2022/01/29 01:21:37;;;;;;;66.40;19.90;;;7.20;99.90;;;;;;5057571;28;20586;-88
2022/01/29 01:24:05;;;;;;;78.57;21.50;;;7.20;99.90;;;;;;5058937;28;20220;-87
2022/01/29 01:26:31;;;;;;;63.20;17.70;;;7.20;99.90;;;;;;5038963;28;20213;-87
2022/01/29 01:28:58;;;;;;;61.93;16.83;;;7.20;99.90;;;;;;5054754;28;20224;-88
2022/01/29 01:31:25;;;;;;;74.50;22.40;;;9.00;99.90;;;;;;5049425;28;20607;-87
2022/01/29 01:33:52;;;;;;;73.47;22.30;;;7.20;99.90;;;;;;5064053;28;20222;-88
2022/01/29 01:36:43;;;;;;;54.57;18.27;;;;;;;;;;5085836;28;20241;-87
2022/01/29 01:39:13;;;;;;;60.07;18.40;;;;;;;;;;5053583;28;20231;-87
2022/01/29 01:41:48;;;;;;;78.33;20.50;;;7.20;99.90;;;;;;5052116;28;20206;-87
2022/01/29 01:44:15;;;;;;;77.73;21.77;;;7.20;99.90;;;;;;5062890;28;20264;-87
2022/01/29 01:46:42;;;;;;;69.90;19.97;;;7.20;99.90;;;;;;5067124;28;20238;-88
2022/01/29 01:49:09;;;;;;;77.90;20.50;;;7.20;99.90;;;;;;5068411;28;20228;-87
2022/01/29 01:51:37;;;;;;;72.40;19.50;;;7.20;99.90;;;;;;5050702;28;20216;-88
2022/01/29 01:54:06;;;;;;;77.10;22.67;;;7.20;99.90;;;;;;5043750;28;20208;-87
2022/01/29 01:56:33;;;;;;;73.63;22.23;;;7.20;99.90;;;;;;5053027;28;20556;-88
2022/01/29 01:59:00;;;;;;;73.17;21.80;;;7.30;99.90;;;;;;5058475;28;20276;-89
2022/01/29 02:01:27;;;;;;;62.20;17.50;;;7.30;99.90;;;;;;5046687;28;20591;-88
2022/01/29 02:03:54;;;;;;;65.87;18.17;;;7.30;99.90;;;;;;5056438;28;20220;-88
2022/01/29 02:06:22;;;;;;;63.53;17.47;;;7.30;99.90;;;;;;5060715;28;20831;-88
2022/01/29 02:08:58;;;;;;;74.43;21.80;;;;;;;;;;5042001;28;20267;-88
2022/01/29 02:11:25;;;;;;;72.10;20.37;;;7.30;99.90;;;;;;5047257;28;20331;-88
2022/01/29 02:13:53;;;;;;;66.10;18.87;;;7.30;99.90;;;;;;5067877;28;20206;-88
2022/01/29 02:16:20;;;;;;;54.90;17.60;;;7.30;99.90;;;;;;5059377;28;20204;-88
2022/01/29 02:18:47;;;;;;;68.57;20.40;;;7.30;99.90;;;;;;5059133;28;20233;-89
2022/01/29 02:21:16;;;;;;;71.60;18.97;;;7.30;99.90;;;;;;5066676;28;20218;-89
2022/01/29 02:23:45;;;;;;;81.07;23.13;;;;;;;;;;5050916;28;20208;-89
2022/01/29 02:26:11;;;;;;;62.57;18.30;;;7.30;99.90;;;;;;5052109;28;20329;-89
2022/01/29 02:28:39;;;;;;;79.47;24.00;;;;;;;;;;5066888;28;20737;-88
2022/01/29 02:31:06;;;;;;;64.37;20.43;;;7.30;99.90;;;;;;5051850;28;20225;-89
2022/01/29 02:33:35;;;;;;;77.10;22.33;;;7.30;99.90;;;;;;5062982;28;20204;-89
2022/01/29 02:36:02;;;;;;;68.33;21.60;;;7.80;99.90;;;;;;5068759;28;20210;-88
2022/01/29 02:38:30;;;;;;;62.33;18.37;;;;;;;;;;5051640;28;20294;-88
2022/01/29 02:41:02;;;;;;;74.00;21.60;;;;;;;;;;5065210;28;20205;-88
2022/01/29 02:43:33;;;;;;;70.73;22.00;;;7.30;99.90;;;;;;5066536;28;20197;-88
2022/01/29 02:46:06;;;;;;;61.30;19.33;;;7.30;99.90;;;;;;5083309;28;20280;-88
2022/01/29 02:48:33;;;;;;;59.40;18.80;;;7.30;99.90;;;;;;5052089;28;20313;-87
2022/01/29 02:51:01;;;;;;;72.90;21.47;;;7.30;99.90;;;;;;5068494;28;20225;-88
2022/01/29 02:53:28;;;;;;;68.87;20.10;;;;;;;;;;5060271;28;20195;-87
2022/01/29 02:55:55;;;;;;;76.63;22.93;;;7.30;99.90;;;;;;5061190;28;20220;-87
2022/01/29 02:58:23;;;;;;;75.47;21.53;;;7.20;99.90;;;;;;5065976;28;20240;-87
2022/01/29 03:00:50;;;;;;;76.50;20.50;;;7.30;99.90;;;;;;5069528;28;20215;-88
2022/01/29 03:03:17;;;;;;;74.83;19.83;;;7.30;99.90;;;;;;5060145;28;20217;-88
2022/01/29 03:05:44;;;;;;;85.43;23.33;;;7.50;99.90;;;;;;5054991;28;20222;-87
2022/01/29 03:08:11;;;;;;;76.10;20.63;;;7.20;99.90;;;;;;5061006;28;20203;-87
2022/01/29 03:10:38;;;;;;;82.23;23.07;;;7.20;99.90;;;;;;5066813;28;20243;-87
2022/01/29 03:13:05;;;;;;;64.80;20.07;;;7.20;99.90;;;;;;5075797;28;20222;-87
2022/01/29 03:15:33;;;;;;;81.20;22.20;;;7.20;99.90;;;;;;5038087;28;20220;-87
2022/01/29 03:18:01;;;;;;;67.77;20.13;;;;;;;;;;5050944;28;20219;-87
2022/01/29 03:20:28;;;;;;;66.10;19.10;;;7.20;99.90;;;;;;5067107;28;20206;-87
2022/01/29 03:22:54;;;;;;;68.40;20.57;;;7.20;99.90;;;;;;5051882;28;20403;-88
2022/01/29 03:25:21;;;;;;;82.43;22.83;;;7.20;99.90;;;;;;5060499;28;20225;-87
2022/01/29 03:27:48;;;;;;;67.10;17.13;;;7.20;99.90;;;;;;5046665;28;20216;-88
2022/01/29 03:30:15;;;;;;;66.73;18.87;;;7.20;99.90;;;;;;5043685;28;20236;-88
2022/01/29 03:32:44;;;;;;;73.70;20.27;;;;;;;;;;5040356;28;20213;-88
2022/01/29 03:35:12;;;;;;;69.70;20.10;;;7.20;99.90;;;;;;5073074;28;20192;-89
2022/01/29 03:37:39;;;;;;;58.23;16.50;;;7.20;99.90;;;;;;5079840;28;20218;-88
2022/01/29 03:40:08;;;;;;;62.93;16.60;;;7.20;99.90;;;;;;5084133;28;20219;-85
2022/01/29 03:42:41;;;;;;;55.40;18.00;;;7.20;99.90;;;;;;5082780;28;20256;-87
2022/01/29 03:45:09;;;;;;;52.70;15.00;;;7.30;99.90;;;;;;5042022;28;20216;-87
2022/01/29 03:47:37;;;;;;;64.37;18.87;;;;;;;;;;5069221;28;20215;-87
2022/01/29 03:50:06;;;;;;;66.63;20.40;;;;;;;;;;5064832;28;20220;-87
2022/01/29 03:52:33;;;;;;;62.37;17.73;;;;;;;;;;5066048;28;20732;-89
2022/01/29 03:55:00;;;;;;;71.97;18.43;;;;;;;;;;5052419;28;20192;-88
2022/01/29 03:57:27;;;;;;;47.07;14.47;;;7.30;99.90;;;;;;5048503;28;20223;-88
2022/01/29 03:59:54;;;;;;;63.80;18.37;;;7.40;99.90;;;;;;5062122;28;20236;-88
2022/01/29 04:02:21;;;;;;;60.00;15.13;;;;;;;;;;5052367;28;20653;-88
2022/01/29 04:04:48;;;;;;;83.20;23.27;;;7.30;99.90;;;;;;5049328;28;20218;-88
2022/01/29 04:07:16;;;;;;;65.13;18.43;;;7.40;99.90;;;;;;5074789;28;20265;-88
2022/01/29 04:09:48;;;;;;;66.73;18.77;;;7.40;99.90;;;;;;5052927;28;20234;-87
2022/01/29 04:12:15;;;;;;;64.00;18.13;;;7.40;99.90;;;;;;5051915;28;20240;-88
2022/01/29 04:14:42;;;;;;;65.43;17.40;;;7.40;99.90;;;;;;5065579;28;20207;-88
2022/01/29 04:17:10;;;;;;;66.43;18.53;;;7.40;99.90;;;;;;5068096;28;20212;-88
2022/01/29 04:19:37;;;;;;;68.97;20.77;;;7.40;99.90;;;;;;5067513;28;20433;-88
2022/01/29 04:22:05;;;;;;;55.23;16.97;;;8.50;99.90;;;;;;5064448;28;20509;-88
2022/01/29 04:24:34;;;;;;;69.40;19.67;;;7.40;99.90;;;;;;5066120;28;20206;-88
2022/01/29 04:27:04;;;;;;;68.73;18.13;;;7.40;99.90;;;;;;5065658;28;20206;-87
2022/01/29 04:29:41;;;;;;;67.63;19.17;;;5.90;99.90;;;;;;5065186;28;20338;-88
2022/01/29 04:32:12;;;;;;;64.70;18.53;;;8.60;99.90;;;;;;5064132;28;20297;-88
2022/01/29 04:34:39;;;;;;;62.90;17.00;;;7.40;99.90;;;;;;5069473;28;20268;-88
2022/01/29 04:37:07;;;;;;;52.77;15.27;;;;;;;;;;5084367;28;20207;-88
2022/01/29 04:39:35;;;;;;;53.57;14.43;;;5.20;99.90;;;;;;5066538;28;20262;-88
2022/01/29 04:42:02;;;;;;;59.83;16.23;;;7.40;99.90;;;;;;5067371;28;20203;-88
2022/01/29 04:44:29;;;;;;;68.90;19.30;;;7.40;99.90;;;;;;5043553;28;20217;-88
2022/01/29 04:46:56;;;;;;;65.23;15.80;;;7.40;99.90;;;;;;5066529;28;20217;-88
2022/01/29 04:49:22;;;;;;;65.87;19.70;;;7.30;99.90;;;;;;5042110;28;20232;-87
2022/01/29 04:51:49;;;;;;;59.70;17.43;;;7.30;99.90;;;;;;5059858;28;20241;-88
2022/01/29 04:54:16;;;;;;;72.27;18.93;;;;;;;;;;5053545;28;20225;-88
2022/01/29 04:56:45;;;;;;;57.93;17.97;;;;;;;;;;5043835;28;20215;-88
2022/01/29 04:59:12;;;;;;;63.80;18.20;;;7.30;99.90;;;;;;5042475;28;20233;-88
2022/01/29 05:01:39;;;;;;;72.03;19.13;;;;;;;;;;5045831;28;20221;-87
2022/01/29 05:04:06;;;;;;;71.83;19.63;;;7.20;99.90;;;;;;5045031;28;20243;-88
2022/01/29 05:06:33;;;;;;;60.83;17.33;;;7.20;99.90;;;;;;5053963;28;20579;-88
2022/01/29 05:09:00;;;;;;;61.90;16.03;;;7.30;99.90;;;;;;5057126;28;20237;-88
2022/01/29 05:11:28;;;;;;;66.47;17.80;;;7.20;99.90;;;;;;5064931;28;20230;-88
2022/01/29 05:13:56;;;;;;;62.33;17.77;;;7.30;99.90;;;;;;5060786;28;20205;-88
2022/01/29 05:16:36;;;;;;;68.50;18.17;;;7.30;99.90;;;;;;5050560;28;20549;-88
2022/01/29 05:27:13;;;;;;;51.30;12.23;;;7.40;99.90;;;;;;5053972;28;20249;-88
2022/01/29 05:29:41;;;;;;;50.93;14.27;;;;;;;;;;5057077;28;20208;-88
2022/01/29 05:32:11;;;;;;;55.10;15.13;;;7.50;99.90;;;;;;5043242;28;20623;-88
2022/01/29 05:34:40;;;;;;;62.07;16.70;;;7.50;99.90;;;;;;5062630;28;20226;-87
2022/01/29 05:37:07;;;;;;;50.73;12.87;;;7.50;99.90;;;;;;5033194;28;20551;-87
2022/01/29 05:39:35;;;;;;;49.33;12.63;;;;;;;;;;5048797;28;20726;-88
2022/01/29 05:42:02;;;;;;;67.73;16.63;;;7.60;99.90;;;;;;5047048;28;20787;-87
2022/01/29 05:44:29;;;;;;;38.60;11.37;;;7.50;99.90;;;;;;5085015;28;20215;-89
2022/01/29 05:46:57;;;;;;;51.37;13.97;;;;;;;;;;5058849;28;20202;-88
2022/01/29 05:49:24;;;;;;;47.17;13.60;;;7.60;99.90;;;;;;5052747;28;20236;-88
2022/01/29 05:51:52;;;;;;;56.53;14.23;;;7.60;99.90;;;;;;5052258;28;20227;-88
2022/01/29 05:54:19;;;;;;;45.03;11.20;;;7.70;99.90;;;;;;5047800;28;20236;-88
2022/01/29 05:56:47;;;;;;;43.07;11.07;;;;;;;;;;5088218;28;20191;-89
2022/01/29 05:59:14;;;;;;;48.60;12.30;;;;;;;;;;5072062;28;20216;-89
2022/01/29 06:01:41;;;;;;;71.33;17.13;;;;;;;;;;5077490;28;20306;-88
2022/01/29 06:04:09;;;;;;;53.53;13.50;;;7.70;99.90;;;;;;5049275;28;20757;-89
2022/01/29 06:06:36;;;;;;;57.27;14.90;;;7.80;99.90;;;;;;5049567;28;20210;-88
2022/01/29 06:09:04;;;;;;;59.83;15.97;;;7.80;99.90;;;;;;5035084;28;20325;-88
2022/01/29 06:11:32;;;;;;;56.50;13.17;;;7.80;99.90;;;;;;5041995;28;20737;-88
2022/01/29 06:13:59;;;;;;;67.00;16.50;;;7.80;99.90;;;;;;5041173;28;20220;-88
2022/01/29 06:16:26;;;;;;;59.70;14.87;;;7.80;99.90;;;;;;5059080;28;20227;-88
2022/01/29 06:18:54;;;;;;;61.20;16.37;;;;;;;;;;5066492;28;20719;-88
2022/01/29 06:21:22;;;;;;;65.23;16.47;;;;;;;;;;5042579;28;20208;-88
2022/01/29 06:23:50;;;;;;;54.37;13.07;;;;;;;;;;5057747;28;20209;-89
2022/01/29 06:26:17;;;;;;;54.80;15.00;;;7.90;99.90;;;;;;5051488;28;20222;-88
2022/01/29 06:28:44;;;;;;;51.33;13.43;;;;;;;;;;5053910;28;20232;-88
2022/01/29 06:31:11;;;;;;;47.43;13.87;;;7.90;99.90;;;;;;5065995;28;20204;-89
2022/01/29 06:33:39;;;;;;;43.73;13.00;;;7.90;99.90;;;;;;5085562;28;20237;-89
2022/01/29 06:36:07;;;;;;;44.03;12.17;;;7.90;99.90;;;;;;5052329;28;20212;-88
2022/01/29 06:38:35;;;;;;;59.47;15.67;;;;;;;;;;5054986;28;20231;-88
2022/01/29 06:41:02;;;;;;;59.17;15.33;;;7.90;99.90;;;;;;5064954;28;20204;-89
2022/01/29 06:43:30;;;;;;;52.93;15.73;;;;;;;;;;5069324;28;20216;-88
2022/01/29 06:45:58;;;;;;;58.10;16.50;;;8.00;99.90;;;;;;5076499;28;20196;-89
2022/01/29 06:48:25;;;;;;;58.27;16.33;;;8.00;99.90;;;;;;5085601;28;20866;-89
2022/01/29 06:50:51;;;;;;;50.53;14.33;;;8.00;99.90;;;;;;5090042;28;20232;-89
2022/01/29 06:53:18;;;;;;;57.30;15.97;;;8.00;99.90;;;;;;5082950;28;20224;-89
2022/01/29 06:55:47;;;;;;;43.87;12.67;;;8.10;99.90;;;;;;5062681;28;20213;-89
2022/01/29 06:58:14;;;;;;;60.10;16.53;;;8.10;99.90;;;;;;5076018;28;20261;-89
2022/01/29 07:00:41;;;;;;;55.10;15.70;;;;;;;;;;5061878;28;20240;-88
2022/01/29 07:03:09;;;;;;;55.53;15.33;;;8.10;99.90;;;;;;5056770;28;20210;-89
2022/01/29 07:05:36;;;;;;;51.33;15.87;;;8.10;99.90;;;;;;5076131;28;20266;-88
2022/01/29 07:08:04;;;;;;;59.03;17.17;;;;;;;;;;5078245;28;20968;-88
2022/01/29 07:10:31;;;;;;;53.97;14.43;;;;;;;;;;5085087;28;20203;-89
2022/01/29 07:13:00;;;;;;;50.27;14.30;;;;;;;;;;5066109;28;20765;-89
2022/01/29 07:15:27;;;;;;;54.93;15.50;;;;;;;;;;5066105;28;20207;-87
2022/01/29 07:17:55;;;;;;;43.67;12.53;;;;;;;;;;5090293;28;20671;-90
2022/01/29 07:20:23;;;;;;;47.73;15.10;;;;;;;;;;5074541;28;20236;-90
2022/01/29 07:22:51;;;;;;;44.77;14.47;;;8.20;99.90;;;;;;5063169;28;20201;-90
2022/01/29 07:25:18;;;;;;;54.00;16.43;;;;;;;;;;5054923;28;20201;-89
2022/01/29 07:27:46;;;;;;;42.50;14.27;;;8.20;99.90;;;;;;5075872;28;20198;-90
2022/01/29 07:30:15;;;;;;;41.67;14.73;;;8.30;99.90;;;;;;5061752;28;20724;-90
2022/01/29 07:32:43;;;;;;;43.60;13.43;;;8.30;99.90;;;;;;5059327;28;20208;-90
2022/01/29 07:35:38;;;;;;;40.30;12.87;;;8.30;99.90;;;;;;5065563;28;20209;-93
2022/01/29 07:38:06;;;;;;;44.37;13.83;;;;;;;;;;5060703;28;20220;-89
2022/01/29 07:40:49;;;;;;;47.13;15.73;;;8.40;99.90;;;;;;5076050;28;20226;-90
2022/01/29 07:43:18;;;;;;;44.17;14.03;;;8.40;99.90;;;;;;5074422;28;20750;-90
2022/01/29 07:46:00;;;;;;;43.90;14.57;;;8.40;99.90;;;;;;5075782;28;20292;-88
2022/01/29 07:48:28;;;;;;;50.13;14.83;;;8.40;99.90;;;;;;5050458;28;20242;-88
2022/01/29 07:50:55;;;;;;;58.70;17.00;;;8.40;99.90;;;;;;5077202;28;20211;-88
2022/01/29 07:53:22;;;;;;;46.13;14.23;;;8.50;99.90;;;;;;5056758;28;20239;-88
2022/01/29 07:55:49;;;;;;;54.50;16.50;;;;;;;;;;5060075;28;20223;-88
2022/01/29 07:58:16;;;;;;;56.87;15.27;;;8.50;99.90;;;;;;5070501;28;20288;-89
2022/01/29 08:00:43;;;;;;;71.93;19.80;;;8.50;99.90;;;;;;5056054;28;20212;-89
2022/01/29 08:03:11;;;;;;;72.47;20.00;;;;;;;;;;5067848;28;20248;-89
2022/01/29 08:05:39;;;;;;;58.13;17.20;;;;;;;;;;5070995;28;20287;-89
2022/01/29 08:08:08;;;;;;;65.07;18.03;;;;;;;;;;5064792;28;20635;-88
2022/01/29 08:10:35;;;;;;;60.57;16.47;;;8.60;99.90;;;;;;5061496;28;20220;-90
2022/01/29 08:13:04;;;;;;;48.17;13.90;;;8.70;99.90;;;;;;5070463;28;20228;-90
2022/01/29 08:15:32;;;;;;;46.07;15.17;;;;;;;;;;5046075;28;20247;-90
2022/01/29 08:18:00;;;;;;;50.57;16.13;;;;;;;;;;5053921;28;20208;-90
2022/01/29 08:20:31;;;;;;;52.10;15.83;;;8.70;99.90;;;;;;5053605;28;20262;-91
2022/01/29 08:22:58;;;;;;;47.90;15.10;;;;;;;;;;5055735;28;20207;-90
2022/01/29 08:25:25;;;;;;;46.03;13.10;;;;;;;;;;5048125;28;20282;-90
2022/01/29 08:27:52;;;;;;;47.10;14.70;;;8.80;99.90;;;;;;5063970;28;20208;-89
2022/01/29 08:30:20;;;;;;;56.47;14.63;;;8.80;99.90;;;;;;5076276;28;20224;-89
2022/01/29 08:32:58;;;;;;;50.43;14.53;;;;;;;;;;5057750;28;20288;-93
2022/01/29 08:35:27;;;;;;;63.83;18.17;;;8.90;99.90;;;;;;5072317;28;20291;-91
2022/01/29 08:37:57;;;;;;;61.60;17.00;;;;;;;;;;5054968;28;20207;-91
2022/01/29 08:40:24;;;;;;;52.70;16.13;;;;;;;;;;5045429;28;20227;-91
2022/01/29 08:42:56;;;;;;;42.87;12.50;;;9.00;99.90;;;;;;5088853;28;20226;-90
2022/01/29 08:45:25;;;;;;;49.77;14.83;;;;;;;;;;5085320;28;20199;-90
2022/01/29 08:47:53;;;;;;;58.17;17.50;;;;;;;;;;5062871;28;20216;-92
2022/01/29 08:50:21;;;;;;;60.80;17.97;;;9.00;99.90;;;;;;5050428;28;20235;-92
2022/01/29 08:53:08;;;;;;;58.67;15.27;;;;;;;;;;5067973;28;20223;-90
2022/01/29 08:55:56;;;;;;;56.63;14.47;;;;;;;;;;5065173;28;20231;-90
2022/01/29 08:58:24;;;;;;;63.50;17.43;;;;;;;;;;5046431;28;20301;-89
2022/01/29 09:00:51;;;;;;;48.83;16.50;;;;;;;;;;5077001;28;20245;-92
2022/01/29 09:03:19;;;;;;;42.77;13.40;;;9.00;99.90;;;;;;5070583;28;20629;-92
2022/01/29 09:05:46;;;;;;;47.93;15.30;;;;;;;;;;5074140;28;20234;-92
2022/01/29 09:22:15;;;;;;;62.97;17.93;;;9.30;99.90;;;;;;5098247;22;20257;-71
2022/01/29 09:24:42;;;;;;;57.50;16.67;;;9.30;99.90;;;;;;5083685;28;20211;-72
2022/01/29 09:27:09;;;;;;;58.67;18.13;;;9.30;99.90;;;;;;5084723;28;20602;-74
2022/01/29 09:29:35;;;;;;;62.27;17.27;;;9.30;99.90;;;;;;5083786;28;20213;-73
2022/01/29 09:32:03;;;;;;;49.70;16.13;;;9.30;99.90;;;;;;5081839;28;20301;-70
2022/01/29 09:34:30;;;;;;;55.67;15.00;;;9.30;99.90;;;;;;5080285;28;20764;-72
2022/01/29 09:39:42;;;;;;;59.00;16.93;;;9.50;99.90;;;;;;5258978;22;20757;-72
2022/01/29 09:42:10;;;;;;;64.63;15.37;;;9.50;99.90;;;;;;5078703;28;20207;-71
2022/01/29 09:44:37;;;;;;;59.63;16.50;;;9.60;99.90;;;;;;5077530;28;20207;-71
2022/01/29 09:47:05;;;;;;;55.43;15.43;;;9.70;99.90;;;;;;5081811;28;20284;-71
2022/01/29 09:49:33;;;;;;;53.13;16.20;;;12.20;99.90;;;;;;5056595;28;20208;-73
2022/01/29 09:52:00;;;;;;;67.47;15.90;;;9.70;99.90;;;;;;5090595;22;20240;-77
2022/01/29 09:54:27;;;;;;;82.33;20.27;;;9.80;99.90;;;;;;5042349;28;20282;-78
2022/01/29 09:56:56;;;;;;;71.73;17.57;;;9.80;99.90;;;;;;5060408;28;20208;-75
2022/01/29 09:59:22;;;;;;;77.63;19.23;;;9.80;99.90;;;;;;5056548;28;20602;-75
2022/01/29 10:01:50;;;;;;;67.57;17.00;;;9.80;99.90;;;;;;5055858;28;20228;-75
2022/01/29 10:04:17;;;;;;;63.77;16.57;;;9.80;99.90;;;;;;5024187;28;20223;-80
2022/01/29 10:06:47;;;;;;;76.30;17.90;;;9.80;99.90;;;;;;5029592;28;20209;-80
2022/01/29 10:09:33;;;;;;;65.57;15.97;;;9.80;99.90;;;;;;5029631;28;20519;-78
2022/01/29 10:12:17;;;;;;;79.13;19.37;;;8.80;99.90;;;;;;5049031;28;20595;-77
2022/01/29 10:14:58;;;;;;;66.70;17.20;;;9.80;99.90;;;;;;5026684;28;20654;-76
2022/01/29 10:17:43;;;;;;;72.70;18.10;;;9.90;99.90;;;;;;5030699;28;20216;-77
2022/01/29 10:20:17;;;;;;;52.33;13.73;;;9.90;99.90;;;;;;5031719;28;20228;-76
2022/01/29 10:22:47;;;;;;;66.07;15.63;;;10.00;99.90;;;;;;5054151;28;20824;-76
2022/01/29 10:25:16;;;;;;;68.07;16.47;;;10.10;99.90;;;;;;5033760;28;20217;-77
2022/01/29 10:28:11;;;;;;;76.37;18.30;;;10.00;99.90;;;;;;5045686;28;20209;-77
2022/01/29 10:30:54;;;;;;;64.53;16.73;;;10.00;99.90;;;;;;5028713;28;20213;-77
2022/01/29 10:33:23;;;;;;;62.77;16.40;;;10.10;99.90;;;;;;5052666;28;20311;-77
2022/01/29 10:35:52;;;;;;;69.03;16.53;;;10.10;99.90;;;;;;5032414;28;20297;-80
2022/01/29 10:38:21;;;;;;;63.93;14.50;;;10.20;99.90;;;;;;5038321;28;20381;-76
2022/01/29 10:41:09;;;;;;;53.17;13.70;;;10.20;99.90;;;;;;5047671;28;20310;-74
2022/01/29 10:43:53;;;;;;;73.83;17.80;;;10.20;99.90;;;;;;5046690;28;20394;-75
2022/01/29 10:46:26;;;;;;;63.97;15.83;;;12.50;99.90;;;;;;5034070;28;20212;-73
2022/01/29 10:48:53;;;;;;;66.90;16.43;;;10.20;99.90;;;;;;5049805;28;20201;-72
2022/01/29 10:51:20;;;;;;;69.93;15.57;;;10.20;99.90;;;;;;5032345;28;20216;-74
2022/01/29 10:53:47;;;;;;;69.47;15.90;;;10.20;99.90;;;;;;5026023;28;20315;-72
2022/01/29 10:56:14;;;;;;;66.47;16.03;;;10.20;99.90;;;;;;5049418;28;20300;-72
2022/01/29 10:58:43;;;;;;;72.87;17.57;;;10.10;99.90;;;;;;5045781;28;20231;-72
2022/01/29 11:01:17;;;;;;;70.30;16.67;;;10.10;99.90;;;;;;5027963;28;20249;-73
2022/01/29 11:03:45;;;;;;;65.23;16.17;;;10.10;99.90;;;;;;5028949;28;20646;-72
2022/01/29 11:06:16;;;;;;;60.40;14.40;;;10.00;99.90;;;;;;5029244;28;20239;-74
2022/01/29 11:08:45;;;;;;;60.67;14.20;;;9.90;99.90;;;;;;5028971;28;20646;-77
2022/01/29 11:11:13;;;;;;;68.37;14.87;;;9.80;99.90;;;;;;5032747;28;20200;-76
2022/01/29 11:13:43;;;;;;;69.33;15.10;;;9.80;99.90;;;;;;5031898;28;20239;-75
2022/01/29 11:16:13;;;;;;;67.73;16.07;;;9.80;99.90;;;;;;5029861;28;20709;-74
2022/01/29 11:18:40;;;;;;;65.63;14.67;;;9.80;99.90;;;;;;5041853;28;20213;-74
2022/01/29 11:21:08;;;;;;;54.80;13.87;;;9.90;99.90;;;;;;5043736;28;20212;-73
2022/01/29 11:23:35;;;;;;;64.47;15.37;;;9.90;99.90;;;;;;5042918;28;20209;-75
2022/01/29 11:26:03;;;;;;;68.87;16.23;;;10.00;99.90;;;;;;5028474;28;20245;-75
2022/01/29 11:28:32;;;;;;;56.97;14.83;;;10.00;99.90;;;;;;5050102;28;20223;-77
2022/01/29 11:31:24;;;;;;;64.80;15.17;;;10.10;99.90;;;;;;5040963;28;20242;-75
2022/01/29 11:34:25;;;;;;;64.07;15.77;;;10.00;99.90;;;;;;5046163;28;20225;-75
2022/01/29 11:37:06;;;;;;;70.70;15.47;;;10.00;99.90;;;;;;5026295;28;20212;-74
2022/01/29 11:39:36;;;;;;;70.17;16.03;;;10.00;99.90;;;;;;5045831;28;20296;-74
2022/01/29 11:42:28;;;;;;;80.57;17.37;;;10.10;99.90;;;;;;5028152;28;20804;-74
2022/01/29 11:44:55;;;;;;;73.17;16.77;;;10.10;99.90;;;;;;5036617;28;20220;-73
2022/01/29 11:47:49;;;;;;;72.57;16.07;;;10.10;99.90;;;;;;5047250;28;20572;-76
2022/01/29 11:50:45;;;;;;;54.90;13.07;;;10.10;99.90;;;;;;5047258;28;20209;-76
2022/01/29 11:53:14;;;;;;;73.17;15.47;;;10.20;99.90;;;;;;5038301;28;20321;-76
2022/01/29 11:55:44;;;;;;;87.97;17.47;;;10.40;99.90;;;;;;5045167;28;20667;-76
2022/01/29 11:58:23;;;;;;;62.20;13.37;;;10.40;99.90;;;;;;5047559;28;20197;-76
2022/01/29 12:00:52;;;;;;;67.50;14.50;;;10.50;99.90;;;;;;5044003;28;20212;-76
2022/01/29 12:03:55;;;;;;;62.63;13.67;;;10.60;99.90;;;;;;5043472;28;20264;-79
2022/01/29 12:06:26;;;;;;;61.60;12.87;;;;;;;;;;5021016;28;20296;-76
2022/01/29 12:09:33;;;;;;;71.93;14.87;;;10.90;99.90;;;;;;5046969;28;20201;-77
2022/01/29 12:12:18;;;;;;;58.80;12.60;;;10.90;99.90;;;;;;5024139;28;20282;-78
2022/01/29 12:14:46;;;;;;;77.73;15.53;;;10.90;99.90;;;;;;5028874;28;20228;-78
2022/01/29 12:17:32;;;;;;;65.27;13.67;;;10.90;99.90;;;;;;5037429;28;20224;-78
2022/01/29 12:20:02;;;;;;;62.80;12.83;;;10.90;99.90;;;;;;5037298;28;20665;-78
2022/01/29 12:22:34;;;;;;;61.23;13.00;;;10.90;99.90;;;;;;5043995;28;20241;-78
2022/01/29 12:25:02;;;;;;;60.97;12.30;;;10.90;99.90;;;;;;5037749;28;20298;-78
2022/01/29 12:27:43;;;;;;;67.83;14.60;;;10.90;99.90;;;;;;5026114;28;20205;-78
2022/01/29 12:30:12;;;;;;;58.40;12.03;;;10.90;99.90;;;;;;5045163;28;20653;-77
2022/01/29 12:32:39;;;;;;;58.93;11.80;;;11.00;99.90;;;;;;5025847;28;20229;-78
2022/01/29 12:35:08;;;;;;;59.13;12.30;;;11.00;99.90;;;;;;5044437;28;20213;-78
2022/01/29 12:37:34;;;;;;;62.90;13.30;;;11.10;99.90;;;;;;5045452;28;20220;-78
2022/01/29 12:40:17;;;;;;;54.63;12.13;;;11.20;99.90;;;;;;5044519;28;20657;-77
2022/01/29 12:42:46;;;;;;;64.57;13.47;;;11.30;99.90;;;;;;5023321;28;20792;-78
2022/01/29 12:45:14;;;;;;;65.07;13.40;;;;;;;;;;5047168;28;20275;-78
2022/01/29 12:47:41;;;;;;;71.97;14.33;;;11.40;99.90;;;;;;5042478;28;20292;-78
2022/01/29 12:50:09;;;;;;;56.67;11.90;;;11.40;99.90;;;;;;5041732;28;20263;-78
2022/01/29 12:52:36;;;;;;;60.60;12.50;;;11.40;99.90;;;;;;5029109;28;20290;-78
2022/01/29 12:55:05;;;;;;;55.23;11.50;;;11.30;99.90;;;;;;5044667;28;20259;-78
2022/01/29 12:57:43;;;;;;;64.77;12.73;;;11.30;99.90;;;;;;5043104;28;20224;-76
2022/01/29 13:00:13;;;;;;;62.23;14.10;;;12.00;99.90;;;;;;5035652;28;20274;-76
2022/01/29 13:02:40;;;;;;;96.80;20.03;;;12.10;99.90;;;;;;5039351;28;20234;-76
2022/01/29 13:05:09;;;;;;;71.70;15.07;;;11.70;99.90;;;;;;5041807;28;20231;-77
2022/01/29 13:07:36;;;;;;;68.47;14.90;;;11.80;99.90;;;;;;5023103;28;20272;-77
2022/01/29 13:10:04;;;;;;;56.60;11.37;;;11.90;99.90;;;;;;5041273;28;20283;-77
2022/01/29 13:12:39;;;;;;;70.23;14.20;;;11.90;99.90;;;;;;5036104;28;20228;-77
2022/01/29 13:15:06;;;;;;;53.13;11.47;;;11.90;99.90;;;;;;5037643;28;20304;-77
2022/01/29 13:17:34;;;;;;;64.20;12.93;;;11.90;99.90;;;;;;5021142;28;20246;-77
2022/01/29 13:20:02;;;;;;;72.87;14.73;;;11.90;99.90;;;;;;5042032;28;20300;-77
2022/01/29 13:22:30;;;;;;;63.63;13.03;;;11.90;99.90;;;;;;5041493;28;20597;-77
2022/01/29 13:25:02;;;;;;;63.30;12.90;;;11.80;99.90;;;;;;5045660;28;20681;-77
2022/01/29 13:27:33;;;;;;;53.40;11.00;;;11.80;99.90;;;;;;5043530;28;20217;-77
2022/01/29 13:30:18;;;;;;;60.23;11.90;;;11.70;99.90;;;;;;5018072;28;20216;-77
2022/01/29 13:32:46;;;;;;;76.10;14.87;;;11.70;99.90;;;;;;5034647;28;20252;-77